createdAt,value
2022-12-11T00:01:24.378Z,100.00
2022-12-11T00:06:24.275Z,100.00
2022-12-11T00:11:24.441Z,100.00
2022-12-11T00:16:27.072Z,100.00
2022-12-11T00:21:24.401Z,100.00
2022-12-11T00:26:24.189Z,100.00
2022-12-11T00:31:24.440Z,100.00
2022-12-11T00:36:24.211Z,100.00
2022-12-11T00:41:24.348Z,100.00
2022-12-11T00:46:24.236Z,100.00
2022-12-11T00:51:24.337Z,100.00
2022-12-11T00:56:24.477Z,100.00
2022-12-11T01:01:24.413Z,100.00
2022-12-11T01:06:24.144Z,100.00
2022-12-11T01:11:24.282Z,100.00
2022-12-11T01:16:24.484Z,100.00
2022-12-11T01:21:24.198Z,100.00
2022-12-11T01:26:24.344Z,100.00
2022-12-11T01:31:24.175Z,100.00
2022-12-11T01:36:24.336Z,100.00
2022-12-11T01:41:24.196Z,100.00
2022-12-11T01:46:24.257Z,100.00
2022-12-11T01:51:24.222Z,100.00
2022-12-11T01:56:24.218Z,100.00
2022-12-11T02:01:24.265Z,100.00
2022-12-11T02:06:24.228Z,100.00
2022-12-11T02:11:24.208Z,100.00
2022-12-11T02:16:24.275Z,100.00
2022-12-11T02:21:24.376Z,100.00
2022-12-11T02:26:24.765Z,100.00
2022-12-11T02:31:24.360Z,100.00
2022-12-11T02:36:24.233Z,100.00
2022-12-11T02:41:24.328Z,99.45
2022-12-11T02:46:24.459Z,100.00
2022-12-11T02:51:24.311Z,99.95
2022-12-11T02:56:24.235Z,100.00
2022-12-11T03:01:24.603Z,100.00
2022-12-11T03:06:24.376Z,100.00
2022-12-11T03:11:24.547Z,100.00
2022-12-11T03:16:24.269Z,100.00
2022-12-11T03:26:24.320Z,99.67
2022-12-11T03:31:24.460Z,99.20
2022-12-11T03:36:24.291Z,99.06
2022-12-11T03:41:24.265Z,99.38
2022-12-11T03:46:24.339Z,98.83
2022-12-11T03:51:24.233Z,98.54
2022-12-11T03:56:24.657Z,99.21
2022-12-11T04:01:24.375Z,98.87
2022-12-11T04:06:24.532Z,99.45
2022-12-11T04:11:24.270Z,99.45
2022-12-11T04:16:24.471Z,99.73
2022-12-11T04:21:24.327Z,99.32
2022-12-11T04:31:24.653Z,97.74
2022-12-11T04:36:24.438Z,97.38
2022-12-11T04:41:24.557Z,97.60
2022-12-11T04:46:24.336Z,96.32
2022-12-11T04:51:24.266Z,97.59
2022-12-11T04:56:24.284Z,96.93
2022-12-11T05:01:24.326Z,97.02
2022-12-11T05:06:24.277Z,96.91
2022-12-11T05:11:24.240Z,96.41
2022-12-11T05:16:24.373Z,96.34
2022-12-11T05:21:24.261Z,96.39
2022-12-11T05:26:24.609Z,96.46
2022-12-11T05:31:24.344Z,96.79
2022-12-11T05:36:24.556Z,96.45
2022-12-11T05:41:24.309Z,95.89
2022-12-11T05:46:24.592Z,95.46
2022-12-11T05:51:24.298Z,94.97
2022-12-11T05:56:24.514Z,93.86
2022-12-11T06:01:24.334Z,94.23
2022-12-11T06:06:24.482Z,94.61
2022-12-11T06:11:24.637Z,94.51
2022-12-11T06:16:24.491Z,93.69
2022-12-11T06:21:24.306Z,95.30
2022-12-11T06:26:24.410Z,92.99
2022-12-11T06:31:24.605Z,94.40
2022-12-11T06:36:24.386Z,91.96
2022-12-11T06:46:24.432Z,92.52
2022-12-11T06:51:24.499Z,92.48
2022-12-11T06:56:24.321Z,92.84
2022-12-11T07:01:24.647Z,92.78
2022-12-11T07:06:24.608Z,91.29
2022-12-11T07:11:24.418Z,91.29
2022-12-11T07:16:24.374Z,91.78
2022-12-11T07:21:24.458Z,91.28
2022-12-11T07:26:24.325Z,90.26
2022-12-11T07:31:24.423Z,90.26
2022-12-11T07:36:24.298Z,89.83
2022-12-11T07:41:24.358Z,89.30
2022-12-11T07:46:24.336Z,89.30
2022-12-11T07:51:24.344Z,89.16
2022-12-11T07:56:24.326Z,88.63
2022-12-11T08:01:24.361Z,88.06
2022-12-11T08:06:24.438Z,87.68
2022-12-11T08:11:24.583Z,87.03
2022-12-11T08:16:24.434Z,87.03
2022-12-11T08:31:24.761Z,85.67
2022-12-11T08:36:24.658Z,84.88
2022-12-11T08:41:24.349Z,84.88
2022-12-11T08:46:24.702Z,84.34
2022-12-11T08:51:24.353Z,84.08
2022-12-11T09:01:24.464Z,83.90
2022-12-11T09:06:24.580Z,83.89
2022-12-11T09:11:24.375Z,82.43
2022-12-11T09:16:24.448Z,82.43
2022-12-11T09:21:24.374Z,82.25
2022-12-11T09:26:24.397Z,81.43
2022-12-11T09:31:24.700Z,81.97
2022-12-11T09:36:24.373Z,81.97
2022-12-11T09:41:24.618Z,82.17
2022-12-11T09:46:24.767Z,81.98
2022-12-11T09:51:24.582Z,81.48
2022-12-11T09:53:16.880Z,81.48
2022-12-11T10:01:26.582Z,81.29
2022-12-11T10:06:24.390Z,81.29
2022-12-11T10:11:24.525Z,81.28
2022-12-11T10:16:24.666Z,81.75
2022-12-11T10:21:24.512Z,80.26
2022-12-11T10:26:24.615Z,80.36
2022-12-11T10:31:24.552Z,80.36
2022-12-11T10:36:24.569Z,80.91
2022-12-11T10:41:24.408Z,79.78
2022-12-11T10:51:24.982Z,80.37
2022-12-11T10:56:24.546Z,78.64
2022-12-11T11:01:24.419Z,78.95
2022-12-11T11:06:24.518Z,78.73
2022-12-11T11:11:24.635Z,79.17
2022-12-11T11:16:24.521Z,78.97
2022-12-11T11:21:24.425Z,78.97
2022-12-11T11:26:30.760Z,79.06
2022-12-11T11:31:24.629Z,78.25
2022-12-11T11:36:26.752Z,77.18
2022-12-11T11:41:24.440Z,77.08
2022-12-11T11:46:24.496Z,76.60
2022-12-11T11:51:24.431Z,76.57
2022-12-11T12:01:24.474Z,76.55
2022-12-11T12:06:24.654Z,75.49
2022-12-11T12:11:24.446Z,75.91
2022-12-11T12:16:51.712Z,75.08
2022-12-11T12:21:24.764Z,75.08
2022-12-11T12:26:24.673Z,75.54
2022-12-11T12:31:24.749Z,76.62
2022-12-11T12:36:24.475Z,77.04
2022-12-11T12:41:24.701Z,77.04
2022-12-11T12:51:25.085Z,74.85
2022-12-11T12:56:24.717Z,75.62
2022-12-11T13:01:24.700Z,75.62
2022-12-11T13:06:26.777Z,75.05
2022-12-11T13:11:24.458Z,75.05
2022-12-11T13:16:24.467Z,75.39
2022-12-11T13:21:24.549Z,75.33
2022-12-11T13:26:24.719Z,74.71
2022-12-11T13:31:24.734Z,75.24
2022-12-11T13:36:24.978Z,75.10
2022-12-11T13:41:24.583Z,74.98
2022-12-11T13:46:24.826Z,74.98
2022-12-11T13:51:24.997Z,75.56
2022-12-11T13:56:24.685Z,75.66
2022-12-11T14:01:25.052Z,76.54
2022-12-11T14:06:24.605Z,76.27
2022-12-11T14:11:24.704Z,76.59
2022-12-11T14:16:24.601Z,76.59
2022-12-11T14:21:24.512Z,76.20
2022-12-11T14:26:24.467Z,76.19
2022-12-11T14:31:24.595Z,75.87
2022-12-11T14:36:24.517Z,75.87
2022-12-11T14:41:24.521Z,76.24
2022-12-11T14:46:24.850Z,75.18
2022-12-11T14:51:24.658Z,75.18
2022-12-11T14:56:24.752Z,75.85
2022-12-11T15:01:24.760Z,75.65
2022-12-11T15:06:24.734Z,76.02
2022-12-11T15:11:24.488Z,76.10
2022-12-11T15:16:24.880Z,76.50
2022-12-11T15:21:24.466Z,76.50
2022-12-11T15:26:24.667Z,75.95
2022-12-11T15:31:24.813Z,75.95
2022-12-11T15:36:24.585Z,75.22
2022-12-11T15:41:24.726Z,75.53
2022-12-11T15:46:24.733Z,75.53
2022-12-11T15:51:24.767Z,74.93
2022-12-11T15:56:24.577Z,74.82
2022-12-11T16:01:25.169Z,74.40
2022-12-11T16:16:25.132Z,74.75
2022-12-11T16:21:24.659Z,73.96
2022-12-11T16:26:24.743Z,74.08
2022-12-11T16:31:24.745Z,74.08
2022-12-11T16:36:24.519Z,74.39
2022-12-11T16:41:24.586Z,73.25
2022-12-11T16:46:24.957Z,74.14
2022-12-11T16:51:24.570Z,73.86
2022-12-11T16:56:24.508Z,73.13
2022-12-11T17:01:24.575Z,73.58
2022-12-11T17:06:24.787Z,72.33
2022-12-11T17:11:24.817Z,72.33
2022-12-11T17:16:24.750Z,73.08
2022-12-11T17:21:25.464Z,73.08
2022-12-11T17:26:24.716Z,72.70
2022-12-11T17:31:25.287Z,72.98
2022-12-11T17:36:24.555Z,72.98
2022-12-11T17:41:24.830Z,72.71
2022-12-11T17:46:24.874Z,72.78
2022-12-11T17:51:24.778Z,72.24
2022-12-11T17:56:24.841Z,72.67
2022-12-11T18:01:24.989Z,72.99
2022-12-11T18:06:24.811Z,72.79
2022-12-11T18:11:24.828Z,72.90
2022-12-11T18:16:24.983Z,73.87
2022-12-11T18:21:24.719Z,73.80
2022-12-11T18:26:24.911Z,73.20
2022-12-11T18:31:25.252Z,75.27
2022-12-11T18:36:24.929Z,73.31
2022-12-11T18:41:24.867Z,73.31
2022-12-11T18:46:24.829Z,73.16
2022-12-11T18:51:25.013Z,72.71
2022-12-11T18:56:24.769Z,72.96
2022-12-11T19:01:25.003Z,72.96
2022-12-11T19:06:24.867Z,73.30
2022-12-11T19:11:25.008Z,73.30
2022-12-11T19:16:24.992Z,73.15
2022-12-11T19:21:24.869Z,73.15
2022-12-11T19:26:25.027Z,73.22
2022-12-11T19:31:24.875Z,73.22
2022-12-11T19:36:24.996Z,73.61
2022-12-11T19:41:24.596Z,74.79
2022-12-11T19:46:25.161Z,73.81
2022-12-11T19:51:24.618Z,73.54
2022-12-11T19:56:25.053Z,73.08
2022-12-11T20:06:25.333Z,74.18
2022-12-11T20:11:24.914Z,73.09
2022-12-11T20:16:46.338Z,73.09
2022-12-11T20:21:24.615Z,74.96
2022-12-11T20:26:24.953Z,74.29
2022-12-11T20:31:25.194Z,75.30
2022-12-11T20:36:24.848Z,75.50
2022-12-11T20:41:25.086Z,74.90
2022-12-11T20:46:25.278Z,74.55
2022-12-11T20:51:26.264Z,74.68
2022-12-11T20:56:25.157Z,74.94
2022-12-11T21:11:24.939Z,75.14
2022-12-11T21:16:24.952Z,75.53
2022-12-11T21:26:25.011Z,76.20
2022-12-11T21:31:25.083Z,75.81
2022-12-11T21:36:24.832Z,77.01
2022-12-11T21:41:24.975Z,77.01
2022-12-11T21:46:24.832Z,76.51
2022-12-11T21:51:24.895Z,77.26
2022-12-11T21:56:24.757Z,76.34
2022-12-11T22:01:24.687Z,76.34
2022-12-11T22:11:24.664Z,76.74
2022-12-11T22:16:24.739Z,76.74
2022-12-11T22:21:24.617Z,76.71
2022-12-11T22:26:24.962Z,77.25
2022-12-11T22:31:24.781Z,77.25
2022-12-11T22:36:24.933Z,77.94
2022-12-11T22:41:24.662Z,80.53
2022-12-11T22:46:24.871Z,81.48
2022-12-11T22:51:24.728Z,82.58
2022-12-11T22:56:24.866Z,82.58
2022-12-11T23:01:24.659Z,82.52
2022-12-11T23:06:24.864Z,83.53
2022-12-11T23:11:24.692Z,84.18
2022-12-11T23:16:24.856Z,83.01
2022-12-11T23:21:24.694Z,83.01
2022-12-11T23:26:24.784Z,83.82
2022-12-11T23:31:24.700Z,83.82
2022-12-11T23:36:24.747Z,83.07
2022-12-11T23:41:24.891Z,84.21
2022-12-11T23:46:24.763Z,83.91
2022-12-11T23:51:24.868Z,83.21
2022-12-11T23:56:24.658Z,82.82
